sensor_id;sensor_type;location;lat;lon;timestamp;P1;durP1;ratioP1;P2;durP2;ratioP2
23716;SDS011;22094;52.130;5.598;2023-04-05T00:00:51;11.70;;;7.50;;
23716;SDS011;22094;52.130;5.598;2023-04-05T00:03:18;14.55;;;7.78;;
23716;SDS011;22094;52.130;5.598;2023-04-05T00:05:44;13.02;;;7.45;;
23716;SDS011;22094;52.130;5.598;2023-04-05T00:08:10;11.02;;;7.45;;
23716;SDS011;22094;52.130;5.598;2023-04-05T00:10:47;13.65;;;7.97;;
23716;SDS011;22094;52.130;5.598;2023-04-05T00:13:14;13.20;;;7.82;;
23716;SDS011;22094;52.130;5.598;2023-04-05T00:15:40;12.30;;;7.78;;
23716;SDS011;22094;52.130;5.598;2023-04-05T00:18:05;12.05;;;8.10;;
23716;SDS011;22094;52.130;5.598;2023-04-05T00:20:31;15.30;;;8.13;;
23716;SDS011;22094;52.130;5.598;2023-04-05T00:22:57;12.23;;;7.47;;
23716;SDS011;22094;52.130;5.598;2023-04-05T00:25:23;12.98;;;8.20;;
23716;SDS011;22094;52.130;5.598;2023-04-05T00:27:49;14.07;;;7.82;;
23716;SDS011;22094;52.130;5.598;2023-04-05T00:30:15;14.63;;;7.90;;
23716;SDS011;22094;52.130;5.598;2023-04-05T00:32:52;13.13;;;8.10;;
23716;SDS011;22094;52.130;5.598;2023-04-05T00:35:18;13.75;;;8.18;;
23716;SDS011;22094;52.130;5.598;2023-04-05T00:37:44;15.02;;;8.43;;
23716;SDS011;22094;52.130;5.598;2023-04-05T00:40:10;12.52;;;7.60;;
23716;SDS011;22094;52.130;5.598;2023-04-05T00:42:35;14.75;;;8.55;;
23716;SDS011;22094;52.130;5.598;2023-04-05T00:45:01;15.05;;;8.38;;
23716;SDS011;22094;52.130;5.598;2023-04-05T00:47:27;12.98;;;8.32;;
23716;SDS011;22094;52.130;5.598;2023-04-05T00:49:52;15.63;;;8.45;;
23716;SDS011;22094;52.130;5.598;2023-04-05T00:52:18;11.35;;;8.20;;
23716;SDS011;22094;52.130;5.598;2023-04-05T00:54:47;14.13;;;8.50;;
23716;SDS011;22094;52.130;5.598;2023-04-05T00:57:13;13.38;;;8.55;;
23716;SDS011;22094;52.130;5.598;2023-04-05T00:59:40;14.52;;;8.55;;
23716;SDS011;22094;52.130;5.598;2023-04-05T01:02:15;13.95;;;8.32;;
23716;SDS011;22094;52.130;5.598;2023-04-05T01:04:50;12.98;;;8.55;;
23716;SDS011;22094;52.130;5.598;2023-04-05T01:07:27;14.77;;;8.43;;
23716;SDS011;22094;52.130;5.598;2023-04-05T01:10:26;14.32;;;8.50;;
23716;SDS011;22094;52.130;5.598;2023-04-05T01:12:58;14.88;;;8.88;;
23716;SDS011;22094;52.130;5.598;2023-04-05T01:15:24;13.80;;;8.48;;
23716;SDS011;22094;52.130;5.598;2023-04-05T01:17:50;15.48;;;8.60;;
23716;SDS011;22094;52.130;5.598;2023-04-05T01:20:18;13.57;;;8.48;;
23716;SDS011;22094;52.130;5.598;2023-04-05T01:23:01;16.10;;;8.50;;
23716;SDS011;22094;52.130;5.598;2023-04-05T01:37:01;18.60;;;9.48;;
23716;SDS011;22094;52.130;5.598;2023-04-05T01:39:30;17.55;;;9.30;;
23716;SDS011;22094;52.130;5.598;2023-04-05T01:42:01;16.75;;;9.20;;
23716;SDS011;22094;52.130;5.598;2023-04-05T01:44:27;15.63;;;9.68;;
23716;SDS011;22094;52.130;5.598;2023-04-05T01:46:53;13.82;;;9.15;;
23716;SDS011;22094;52.130;5.598;2023-04-05T01:49:19;15.50;;;9.23;;
23716;SDS011;22094;52.130;5.598;2023-04-05T01:51:45;16.05;;;9.60;;
23716;SDS011;22094;52.130;5.598;2023-04-05T01:54:10;19.92;;;9.82;;
23716;SDS011;22094;52.130;5.598;2023-04-05T01:56:36;15.63;;;9.65;;
23716;SDS011;22094;52.130;5.598;2023-04-05T01:59:02;15.68;;;10.02;;
23716;SDS011;22094;52.130;5.598;2023-04-05T02:01:27;18.30;;;10.10;;
23716;SDS011;22094;52.130;5.598;2023-04-05T02:03:53;18.92;;;10.43;;
23716;SDS011;22094;52.130;5.598;2023-04-05T02:06:19;18.27;;;10.52;;
23716;SDS011;22094;52.130;5.598;2023-04-05T02:08:44;17.00;;;10.05;;
23716;SDS011;22094;52.130;5.598;2023-04-05T02:11:10;17.38;;;10.50;;
23716;SDS011;22094;52.130;5.598;2023-04-05T02:13:35;17.77;;;9.90;;
23716;SDS011;22094;52.130;5.598;2023-04-05T02:16:01;21.55;;;10.60;;
23716;SDS011;22094;52.130;5.598;2023-04-05T02:18:26;18.25;;;11.10;;
23716;SDS011;22094;52.130;5.598;2023-04-05T02:21:02;20.17;;;11.13;;
23716;SDS011;22094;52.130;5.598;2023-04-05T02:23:29;20.80;;;11.55;;
23716;SDS011;22094;52.130;5.598;2023-04-05T02:25:56;19.95;;;10.77;;
23716;SDS011;22094;52.130;5.598;2023-04-05T02:28:22;18.92;;;11.05;;
23716;SDS011;22094;52.130;5.598;2023-04-05T02:30:48;16.50;;;10.60;;
23716;SDS011;22094;52.130;5.598;2023-04-05T02:33:14;22.02;;;11.63;;
23716;SDS011;22094;52.130;5.598;2023-04-05T02:35:39;23.40;;;12.00;;
23716;SDS011;22094;52.130;5.598;2023-04-05T02:38:05;19.00;;;11.48;;
23716;SDS011;22094;52.130;5.598;2023-04-05T02:40:31;20.25;;;11.73;;
23716;SDS011;22094;52.130;5.598;2023-04-05T02:42:56;17.48;;;11.23;;
23716;SDS011;22094;52.130;5.598;2023-04-05T02:45:22;23.92;;;11.73;;
23716;SDS011;22094;52.130;5.598;2023-04-05T02:47:47;18.83;;;11.75;;
23716;SDS011;22094;52.130;5.598;2023-04-05T02:50:13;19.38;;;11.45;;
23716;SDS011;22094;52.130;5.598;2023-04-05T02:52:39;21.80;;;13.00;;
23716;SDS011;22094;52.130;5.598;2023-04-05T02:55:05;20.15;;;11.93;;
23716;SDS011;22094;52.130;5.598;2023-04-05T02:57:31;18.25;;;11.70;;
23716;SDS011;22094;52.130;5.598;2023-04-05T02:59:57;19.77;;;11.93;;
23716;SDS011;22094;52.130;5.598;2023-04-05T03:02:22;18.27;;;11.23;;
23716;SDS011;22094;52.130;5.598;2023-04-05T03:04:50;23.13;;;12.20;;
23716;SDS011;22094;52.130;5.598;2023-04-05T03:07:17;17.38;;;11.23;;
23716;SDS011;22094;52.130;5.598;2023-04-05T03:09:46;20.60;;;11.88;;
23716;SDS011;22094;52.130;5.598;2023-04-05T03:12:11;21.23;;;13.05;;
23716;SDS011;22094;52.130;5.598;2023-04-05T03:14:37;22.35;;;12.43;;
23716;SDS011;22094;52.130;5.598;2023-04-05T03:17:03;19.55;;;11.98;;
23716;SDS011;22094;52.130;5.598;2023-04-05T03:19:30;20.73;;;13.15;;
23716;SDS011;22094;52.130;5.598;2023-04-05T03:21:56;21.63;;;12.27;;
23716;SDS011;22094;52.130;5.598;2023-04-05T03:24:22;21.92;;;12.98;;
23716;SDS011;22094;52.130;5.598;2023-04-05T03:26:48;20.05;;;11.90;;
23716;SDS011;22094;52.130;5.598;2023-04-05T03:29:14;26.88;;;13.10;;
23716;SDS011;22094;52.130;5.598;2023-04-05T03:31:41;23.27;;;12.48;;
23716;SDS011;22094;52.130;5.598;2023-04-05T03:34:06;22.33;;;13.43;;
23716;SDS011;22094;52.130;5.598;2023-04-05T03:36:33;22.27;;;12.93;;
23716;SDS011;22094;52.130;5.598;2023-04-05T03:39:05;26.73;;;13.25;;
23716;SDS011;22094;52.130;5.598;2023-04-05T03:41:35;21.15;;;13.05;;
23716;SDS011;22094;52.130;5.598;2023-04-05T03:44:01;23.45;;;12.88;;
23716;SDS011;22094;52.130;5.598;2023-04-05T03:46:26;21.30;;;13.32;;
23716;SDS011;22094;52.130;5.598;2023-04-05T03:48:52;23.05;;;13.30;;
23716;SDS011;22094;52.130;5.598;2023-04-05T03:51:18;23.60;;;13.55;;
23716;SDS011;22094;52.130;5.598;2023-04-05T03:53:46;24.83;;;13.52;;
23716;SDS011;22094;52.130;5.598;2023-04-05T03:56:12;26.98;;;14.40;;
23716;SDS011;22094;52.130;5.598;2023-04-05T03:58:39;25.83;;;14.15;;
23716;SDS011;22094;52.130;5.598;2023-04-05T04:01:05;23.45;;;13.23;;
23716;SDS011;22094;52.130;5.598;2023-04-05T04:03:31;23.65;;;13.52;;
23716;SDS011;22094;52.130;5.598;2023-04-05T04:05:57;24.75;;;14.05;;
23716;SDS011;22094;52.130;5.598;2023-04-05T04:08:23;24.70;;;14.15;;
23716;SDS011;22094;52.130;5.598;2023-04-05T04:10:49;22.85;;;13.38;;
23716;SDS011;22094;52.130;5.598;2023-04-05T04:13:15;23.67;;;13.32;;
23716;SDS011;22094;52.130;5.598;2023-04-05T04:15:43;27.80;;;15.13;;
23716;SDS011;22094;52.130;5.598;2023-04-05T04:18:09;28.45;;;14.48;;
23716;SDS011;22094;52.130;5.598;2023-04-05T04:20:36;26.13;;;15.32;;
23716;SDS011;22094;52.130;5.598;2023-04-05T04:23:04;27.20;;;15.23;;
23716;SDS011;22094;52.130;5.598;2023-04-05T04:25:34;27.88;;;15.60;;
23716;SDS011;22094;52.130;5.598;2023-04-05T04:28:03;29.63;;;15.63;;
23716;SDS011;22094;52.130;5.598;2023-04-05T04:30:30;26.58;;;15.00;;
23716;SDS011;22094;52.130;5.598;2023-04-05T04:32:58;26.45;;;15.15;;
23716;SDS011;22094;52.130;5.598;2023-04-05T04:35:28;25.10;;;15.10;;
23716;SDS011;22094;52.130;5.598;2023-04-05T04:38:01;28.77;;;15.23;;
23716;SDS011;22094;52.130;5.598;2023-04-05T04:40:35;26.35;;;15.05;;
23716;SDS011;22094;52.130;5.598;2023-04-05T04:43:04;23.92;;;15.32;;
23716;SDS011;22094;52.130;5.598;2023-04-05T04:45:30;27.65;;;15.23;;
23716;SDS011;22094;52.130;5.598;2023-04-05T04:47:58;28.02;;;16.30;;
23716;SDS011;22094;52.130;5.598;2023-04-05T04:50:25;34.35;;;17.27;;
23716;SDS011;22094;52.130;5.598;2023-04-05T04:52:51;28.02;;;16.63;;
23716;SDS011;22094;52.130;5.598;2023-04-05T04:55:16;29.88;;;16.30;;
23716;SDS011;22094;52.130;5.598;2023-04-05T04:57:50;25.77;;;15.40;;
23716;SDS011;22094;52.130;5.598;2023-04-05T05:00:16;24.33;;;14.48;;
23716;SDS011;22094;52.130;5.598;2023-04-05T05:02:42;32.17;;;15.38;;
23716;SDS011;22094;52.130;5.598;2023-04-05T05:05:09;29.70;;;16.67;;
23716;SDS011;22094;52.130;5.598;2023-04-05T05:07:35;29.13;;;15.93;;
23716;SDS011;22094;52.130;5.598;2023-04-05T05:10:02;29.55;;;16.83;;
23716;SDS011;22094;52.130;5.598;2023-04-05T05:12:28;29.98;;;17.10;;
23716;SDS011;22094;52.130;5.598;2023-04-05T05:14:55;27.63;;;16.77;;
23716;SDS011;22094;52.130;5.598;2023-04-05T05:17:21;30.13;;;17.52;;
23716;SDS011;22094;52.130;5.598;2023-04-05T05:19:47;28.75;;;17.02;;
23716;SDS011;22094;52.130;5.598;2023-04-05T05:22:13;32.03;;;16.48;;
23716;SDS011;22094;52.130;5.598;2023-04-05T05:24:38;29.70;;;17.63;;
23716;SDS011;22094;52.130;5.598;2023-04-05T05:27:04;36.45;;;17.58;;
23716;SDS011;22094;52.130;5.598;2023-04-05T05:29:30;29.02;;;17.08;;
23716;SDS011;22094;52.130;5.598;2023-04-05T05:31:56;31.23;;;17.05;;
23716;SDS011;22094;52.130;5.598;2023-04-05T05:34:22;26.08;;;16.55;;
23716;SDS011;22094;52.130;5.598;2023-04-05T05:36:48;33.30;;;17.75;;
23716;SDS011;22094;52.130;5.598;2023-04-05T05:39:15;32.13;;;17.52;;
23716;SDS011;22094;52.130;5.598;2023-04-05T05:41:41;33.20;;;17.40;;
23716;SDS011;22094;52.130;5.598;2023-04-05T05:44:06;27.75;;;18.13;;
23716;SDS011;22094;52.130;5.598;2023-04-05T05:46:32;31.50;;;16.60;;
23716;SDS011;22094;52.130;5.598;2023-04-05T05:48:59;26.70;;;16.60;;
23716;SDS011;22094;52.130;5.598;2023-04-05T05:51:25;28.02;;;14.15;;
23716;SDS011;22094;52.130;5.598;2023-04-05T05:53:50;19.13;;;12.15;;
23716;SDS011;22094;52.130;5.598;2023-04-05T05:56:16;26.35;;;12.80;;
23716;SDS011;22094;52.130;5.598;2023-04-05T05:58:42;27.02;;;12.05;;
23716;SDS011;22094;52.130;5.598;2023-04-05T06:01:07;18.95;;;11.40;;
23716;SDS011;22094;52.130;5.598;2023-04-05T06:03:36;22.27;;;11.38;;
23716;SDS011;22094;52.130;5.598;2023-04-05T06:06:01;19.23;;;10.90;;
23716;SDS011;22094;52.130;5.598;2023-04-05T06:08:29;20.27;;;11.52;;
23716;SDS011;22094;52.130;5.598;2023-04-05T06:10:56;18.67;;;11.75;;
23716;SDS011;22094;52.130;5.598;2023-04-05T06:13:22;19.35;;;12.02;;
23716;SDS011;22094;52.130;5.598;2023-04-05T06:15:48;21.85;;;13.13;;
23716;SDS011;22094;52.130;5.598;2023-04-05T06:18:14;23.70;;;13.93;;
23716;SDS011;22094;52.130;5.598;2023-04-05T06:20:41;26.92;;;14.57;;
23716;SDS011;22094;52.130;5.598;2023-04-05T06:23:08;29.60;;;16.30;;
23716;SDS011;22094;52.130;5.598;2023-04-05T06:25:34;28.52;;;16.05;;
23716;SDS011;22094;52.130;5.598;2023-04-05T06:28:02;33.25;;;16.15;;
23716;SDS011;22094;52.130;5.598;2023-04-05T06:30:28;37.72;;;17.17;;
23716;SDS011;22094;52.130;5.598;2023-04-05T06:32:54;31.58;;;17.08;;
23716;SDS011;22094;52.130;5.598;2023-04-05T06:35:23;33.00;;;15.98;;
23716;SDS011;22094;52.130;5.598;2023-04-05T06:37:49;32.65;;;17.02;;
23716;SDS011;22094;52.130;5.598;2023-04-05T06:40:15;40.38;;;17.80;;
23716;SDS011;22094;52.130;5.598;2023-04-05T06:42:42;34.10;;;16.38;;
23716;SDS011;22094;52.130;5.598;2023-04-05T06:45:08;43.97;;;17.55;;
23716;SDS011;22094;52.130;5.598;2023-04-05T06:47:35;40.60;;;16.13;;
23716;SDS011;22094;52.130;5.598;2023-04-05T06:50:02;28.80;;;14.77;;
23716;SDS011;22094;52.130;5.598;2023-04-05T06:52:29;32.38;;;14.57;;
23716;SDS011;22094;52.130;5.598;2023-04-05T06:54:55;26.10;;;14.30;;
23716;SDS011;22094;52.130;5.598;2023-04-05T06:57:20;26.35;;;13.63;;
23716;SDS011;22094;52.130;5.598;2023-04-05T06:59:46;21.38;;;12.98;;
23716;SDS011;22094;52.130;5.598;2023-04-05T07:02:12;18.85;;;12.20;;
23716;SDS011;22094;52.130;5.598;2023-04-05T07:04:38;22.75;;;12.77;;
23716;SDS011;22094;52.130;5.598;2023-04-05T07:07:04;18.88;;;11.73;;
23716;SDS011;22094;52.130;5.598;2023-04-05T07:09:33;19.80;;;12.73;;
23716;SDS011;22094;52.130;5.598;2023-04-05T07:11:59;19.50;;;11.65;;
23716;SDS011;22094;52.130;5.598;2023-04-05T07:14:28;16.75;;;11.40;;
23716;SDS011;22094;52.130;5.598;2023-04-05T07:16:57;18.98;;;11.52;;
23716;SDS011;22094;52.130;5.598;2023-04-05T07:19:23;18.52;;;10.55;;
23716;SDS011;22094;52.130;5.598;2023-04-05T07:21:48;15.57;;;10.00;;
23716;SDS011;22094;52.130;5.598;2023-04-05T07:24:14;14.70;;;9.48;;
23716;SDS011;22094;52.130;5.598;2023-04-05T07:26:40;15.05;;;9.40;;
23716;SDS011;22094;52.130;5.598;2023-04-05T07:29:06;13.50;;;9.30;;
23716;SDS011;22094;52.130;5.598;2023-04-05T07:31:33;14.77;;;9.00;;
23716;SDS011;22094;52.130;5.598;2023-04-05T07:33:59;14.52;;;9.32;;
23716;SDS011;22094;52.130;5.598;2023-04-05T07:36:25;14.27;;;8.77;;
23716;SDS011;22094;52.130;5.598;2023-04-05T07:38:55;12.23;;;8.55;;
23716;SDS011;22094;52.130;5.598;2023-04-05T07:41:23;12.25;;;8.30;;
23716;SDS011;22094;52.130;5.598;2023-04-05T07:43:49;14.85;;;8.35;;
23716;SDS011;22094;52.130;5.598;2023-04-05T07:46:15;11.45;;;7.75;;
23716;SDS011;22094;52.130;5.598;2023-04-05T07:48:41;14.05;;;8.73;;
23716;SDS011;22094;52.130;5.598;2023-04-05T07:51:07;13.05;;;8.07;;
23716;SDS011;22094;52.130;5.598;2023-04-05T07:53:34;11.77;;;7.57;;
23716;SDS011;22094;52.130;5.598;2023-04-05T07:56:07;11.85;;;8.00;;
23716;SDS011;22094;52.130;5.598;2023-04-05T07:58:34;11.20;;;7.00;;
23716;SDS011;22094;52.130;5.598;2023-04-05T08:01:03;11.63;;;7.43;;
23716;SDS011;22094;52.130;5.598;2023-04-05T08:03:30;8.88;;;7.43;;
23716;SDS011;22094;52.130;5.598;2023-04-05T08:05:56;15.07;;;7.05;;
23716;SDS011;22094;52.130;5.598;2023-04-05T08:08:23;10.75;;;6.43;;
23716;SDS011;22094;52.130;5.598;2023-04-05T08:10:49;11.05;;;7.68;;
23716;SDS011;22094;52.130;5.598;2023-04-05T08:13:15;10.82;;;7.50;;
23716;SDS011;22094;52.130;5.598;2023-04-05T08:15:40;10.48;;;6.68;;
23716;SDS011;22094;52.130;5.598;2023-04-05T08:18:06;7.65;;;6.53;;
23716;SDS011;22094;52.130;5.598;2023-04-05T08:20:32;10.40;;;6.00;;
23716;SDS011;22094;52.130;5.598;2023-04-05T08:23:03;8.38;;;6.35;;
23716;SDS011;22094;52.130;5.598;2023-04-05T08:25:32;8.25;;;5.90;;
23716;SDS011;22094;52.130;5.598;2023-04-05T08:27:57;9.00;;;5.82;;
23716;SDS011;22094;52.130;5.598;2023-04-05T08:30:23;9.18;;;6.07;;
23716;SDS011;22094;52.130;5.598;2023-04-05T08:32:49;8.30;;;5.95;;
23716;SDS011;22094;52.130;5.598;2023-04-05T08:35:15;11.23;;;6.38;;
23716;SDS011;22094;52.130;5.598;2023-04-05T08:37:41;11.90;;;6.55;;
23716;SDS011;22094;52.130;5.598;2023-04-05T08:40:07;10.70;;;6.68;;
23716;SDS011;22094;52.130;5.598;2023-04-05T08:42:40;19.67;;;6.75;;
23716;SDS011;22094;52.130;5.598;2023-04-05T08:45:09;11.10;;;7.18;;
23716;SDS011;22094;52.130;5.598;2023-04-05T08:47:37;30.33;;;8.27;;
23716;SDS011;22094;52.130;5.598;2023-04-05T08:50:03;11.38;;;6.50;;
23716;SDS011;22094;52.130;5.598;2023-04-05T08:52:30;11.18;;;6.85;;
23716;SDS011;22094;52.130;5.598;2023-04-05T08:54:57;10.32;;;6.60;;
23716;SDS011;22094;52.130;5.598;2023-04-05T08:57:24;9.10;;;5.72;;
23716;SDS011;22094;52.130;5.598;2023-04-05T08:59:53;15.88;;;6.20;;
23716;SDS011;22094;52.130;5.598;2023-04-05T09:02:21;6.47;;;5.40;;
23716;SDS011;22094;52.130;5.598;2023-04-05T09:04:51;6.93;;;5.90;;
23716;SDS011;22094;52.130;5.598;2023-04-05T09:07:17;7.55;;;6.15;;
23716;SDS011;22094;52.130;5.598;2023-04-05T09:09:51;10.20;;;5.28;;
23716;SDS011;22094;52.130;5.598;2023-04-05T09:12:21;8.68;;;5.32;;
23716;SDS011;22094;52.130;5.598;2023-04-05T09:14:47;8.23;;;6.25;;
23716;SDS011;22094;52.130;5.598;2023-04-05T09:17:14;7.53;;;5.32;;
23716;SDS011;22094;52.130;5.598;2023-04-05T09:19:42;7.38;;;6.28;;
23716;SDS011;22094;52.130;5.598;2023-04-05T09:22:08;8.35;;;6.22;;
23716;SDS011;22094;52.130;5.598;2023-04-05T09:24:41;8.30;;;5.88;;
23716;SDS011;22094;52.130;5.598;2023-04-05T09:27:17;7.68;;;6.13;;
23716;SDS011;22094;52.130;5.598;2023-04-05T09:29:47;8.38;;;5.88;;
23716;SDS011;22094;52.130;5.598;2023-04-05T09:32:13;8.30;;;6.03;;
23716;SDS011;22094;52.130;5.598;2023-04-05T09:34:41;10.15;;;5.85;;
23716;SDS011;22094;52.130;5.598;2023-04-05T09:37:14;8.73;;;6.03;;
23716;SDS011;22094;52.130;5.598;2023-04-05T09:39:40;22.60;;;12.77;;
23716;SDS011;22094;52.130;5.598;2023-04-05T09:42:10;13.82;;;7.93;;
23716;SDS011;22094;52.130;5.598;2023-04-05T09:47:15;9.48;;;6.18;;
23716;SDS011;22094;52.130;5.598;2023-04-05T09:49:41;19.13;;;6.97;;
23716;SDS011;22094;52.130;5.598;2023-04-05T09:52:19;13.82;;;6.50;;
23716;SDS011;22094;52.130;5.598;2023-04-05T09:54:50;16.85;;;7.20;;
23716;SDS011;22094;52.130;5.598;2023-04-05T09:57:24;9.43;;;6.78;;
23716;SDS011;22094;52.130;5.598;2023-04-05T09:59:56;9.68;;;6.43;;
23716;SDS011;22094;52.130;5.598;2023-04-05T10:02:22;9.30;;;6.38;;
23716;SDS011;22094;52.130;5.598;2023-04-05T10:04:48;8.93;;;6.40;;
23716;SDS011;22094;52.130;5.598;2023-04-05T10:07:15;19.77;;;7.00;;
23716;SDS011;22094;52.130;5.598;2023-04-05T10:09:42;9.93;;;6.65;;
23716;SDS011;22094;52.130;5.598;2023-04-05T10:12:12;9.02;;;6.40;;
23716;SDS011;22094;52.130;5.598;2023-04-05T10:14:38;7.70;;;5.70;;
23716;SDS011;22094;52.130;5.598;2023-04-05T10:25:11;7.75;;;6.07;;
23716;SDS011;22094;52.130;5.598;2023-04-05T10:27:46;7.93;;;6.15;;
23716;SDS011;22094;52.130;5.598;2023-04-05T10:30:15;9.23;;;6.00;;
23716;SDS011;22094;52.130;5.598;2023-04-05T10:32:51;9.75;;;5.97;;
23716;SDS011;22094;52.130;5.598;2023-04-05T10:35:32;9.93;;;6.85;;
23716;SDS011;22094;52.130;5.598;2023-04-05T10:40:33;8.73;;;6.65;;
23716;SDS011;22094;52.130;5.598;2023-04-05T10:43:00;8.32;;;6.30;;
23716;SDS011;22094;52.130;5.598;2023-04-05T10:45:26;8.52;;;6.32;;
23716;SDS011;22094;52.130;5.598;2023-04-05T10:47:53;8.68;;;6.90;;
23716;SDS011;22094;52.130;5.598;2023-04-05T10:50:23;11.07;;;7.20;;
23716;SDS011;22094;52.130;5.598;2023-04-05T10:52:50;8.95;;;6.38;;
23716;SDS011;22094;52.130;5.598;2023-04-05T10:55:17;9.82;;;6.53;;
23716;SDS011;22094;52.130;5.598;2023-04-05T10:57:44;8.45;;;6.40;;
23716;SDS011;22094;52.130;5.598;2023-04-05T11:00:11;9.00;;;6.03;;
23716;SDS011;22094;52.130;5.598;2023-04-05T11:02:38;8.07;;;6.13;;
23716;SDS011;22094;52.130;5.598;2023-04-05T11:05:04;8.02;;;6.20;;
23716;SDS011;22094;52.130;5.598;2023-04-05T11:07:44;9.68;;;6.05;;
23716;SDS011;22094;52.130;5.598;2023-04-05T11:10:17;8.95;;;5.97;;
23716;SDS011;22094;52.130;5.598;2023-04-05T11:20:50;8.20;;;6.03;;
23716;SDS011;22094;52.130;5.598;2023-04-05T11:23:20;11.73;;;7.53;;
23716;SDS011;22094;52.130;5.598;2023-04-05T11:30:47;7.85;;;6.35;;
23716;SDS011;22094;52.130;5.598;2023-04-05T11:36:01;16.83;;;6.75;;
23716;SDS011;22094;52.130;5.598;2023-04-05T11:38:27;7.75;;;6.18;;
23716;SDS011;22094;52.130;5.598;2023-04-05T11:41:04;6.72;;;6.03;;
23716;SDS011;22094;52.130;5.598;2023-04-05T11:43:31;9.60;;;6.72;;
23716;SDS011;22094;52.130;5.598;2023-04-05T11:46:02;7.00;;;5.78;;
23716;SDS011;22094;52.130;5.598;2023-04-05T11:48:29;7.72;;;6.13;;
23716;SDS011;22094;52.130;5.598;2023-04-05T11:50:56;17.70;;;7.43;;
23716;SDS011;22094;52.130;5.598;2023-04-05T11:53:22;8.25;;;6.45;;
23716;SDS011;22094;52.130;5.598;2023-04-05T11:55:49;9.30;;;6.85;;
23716;SDS011;22094;52.130;5.598;2023-04-05T12:00:43;10.48;;;6.25;;
23716;SDS011;22094;52.130;5.598;2023-04-05T12:03:13;9.38;;;6.85;;
23716;SDS011;22094;52.130;5.598;2023-04-05T12:05:46;8.32;;;5.75;;
23716;SDS011;22094;52.130;5.598;2023-04-05T12:08:16;10.80;;;6.10;;
23716;SDS011;22094;52.130;5.598;2023-04-05T12:10:52;17.05;;;6.85;;
23716;SDS011;22094;52.130;5.598;2023-04-05T12:13:28;9.85;;;6.30;;
23716;SDS011;22094;52.130;5.598;2023-04-05T12:15:59;8.77;;;6.75;;
23716;SDS011;22094;52.130;5.598;2023-04-05T12:18:26;8.88;;;6.10;;
23716;SDS011;22094;52.130;5.598;2023-04-05T12:20:53;10.05;;;6.30;;
23716;SDS011;22094;52.130;5.598;2023-04-05T12:23:20;10.32;;;6.25;;
23716;SDS011;22094;52.130;5.598;2023-04-05T12:25:50;7.63;;;6.10;;
23716;SDS011;22094;52.130;5.598;2023-04-05T12:28:16;8.18;;;6.20;;
23716;SDS011;22094;52.130;5.598;2023-04-05T12:30:52;11.10;;;6.53;;
23716;SDS011;22094;52.130;5.598;2023-04-05T12:33:28;8.63;;;6.35;;
23716;SDS011;22094;52.130;5.598;2023-04-05T12:35:56;9.63;;;6.70;;
23716;SDS011;22094;52.130;5.598;2023-04-05T12:38:26;8.63;;;6.40;;
23716;SDS011;22094;52.130;5.598;2023-04-05T12:40:53;9.45;;;6.45;;
23716;SDS011;22094;52.130;5.598;2023-04-05T12:43:19;9.13;;;5.95;;
23716;SDS011;22094;52.130;5.598;2023-04-05T12:45:45;9.40;;;6.20;;
23716;SDS011;22094;52.130;5.598;2023-04-05T12:48:18;7.20;;;5.78;;
23716;SDS011;22094;52.130;5.598;2023-04-05T12:50:49;9.00;;;5.85;;
23716;SDS011;22094;52.130;5.598;2023-04-05T12:53:22;8.80;;;6.20;;
23716;SDS011;22094;52.130;5.598;2023-04-05T12:55:52;7.40;;;6.05;;
23716;SDS011;22094;52.130;5.598;2023-04-05T12:58:20;8.07;;;6.20;;
23716;SDS011;22094;52.130;5.598;2023-04-05T13:00:47;8.57;;;6.22;;
23716;SDS011;22094;52.130;5.598;2023-04-05T13:03:16;8.05;;;6.15;;
23716;SDS011;22094;52.130;5.598;2023-04-05T13:05:45;10.75;;;7.18;;
23716;SDS011;22094;52.130;5.598;2023-04-05T13:08:12;12.88;;;7.82;;
23716;SDS011;22094;52.130;5.598;2023-04-05T13:10:41;8.55;;;7.13;;
23716;SDS011;22094;52.130;5.598;2023-04-05T13:13:06;10.05;;;6.68;;
23716;SDS011;22094;52.130;5.598;2023-04-05T13:15:32;9.25;;;7.10;;
23716;SDS011;22094;52.130;5.598;2023-04-05T13:17:58;9.48;;;6.60;;
23716;SDS011;22094;52.130;5.598;2023-04-05T13:20:24;8.27;;;5.97;;
23716;SDS011;22094;52.130;5.598;2023-04-05T13:22:50;9.15;;;6.50;;
23716;SDS011;22094;52.130;5.598;2023-04-05T13:25:16;9.95;;;7.13;;
23716;SDS011;22094;52.130;5.598;2023-04-05T13:27:42;12.10;;;6.43;;
23716;SDS011;22094;52.130;5.598;2023-04-05T13:30:08;10.18;;;6.82;;
23716;SDS011;22094;52.130;5.598;2023-04-05T13:32:34;9.38;;;6.28;;
23716;SDS011;22094;52.130;5.598;2023-04-05T13:35:00;8.45;;;6.78;;
23716;SDS011;22094;52.130;5.598;2023-04-05T13:37:26;7.95;;;6.50;;
23716;SDS011;22094;52.130;5.598;2023-04-05T13:39:52;8.05;;;6.57;;
23716;SDS011;22094;52.130;5.598;2023-04-05T13:42:18;8.23;;;6.65;;
23716;SDS011;22094;52.130;5.598;2023-04-05T13:44:44;7.10;;;6.40;;
23716;SDS011;22094;52.130;5.598;2023-04-05T13:47:10;8.48;;;6.72;;
23716;SDS011;22094;52.130;5.598;2023-04-05T13:49:38;9.90;;;6.07;;
23716;SDS011;22094;52.130;5.598;2023-04-05T13:52:04;11.88;;;6.78;;
23716;SDS011;22094;52.130;5.598;2023-04-05T13:54:30;8.48;;;6.45;;
23716;SDS011;22094;52.130;5.598;2023-04-05T13:56:56;8.05;;;6.63;;
23716;SDS011;22094;52.130;5.598;2023-04-05T13:59:23;12.52;;;6.68;;
23716;SDS011;22094;52.130;5.598;2023-04-05T14:01:49;7.53;;;6.15;;
23716;SDS011;22094;52.130;5.598;2023-04-05T14:04:15;12.20;;;6.63;;
23716;SDS011;22094;52.130;5.598;2023-04-05T14:06:41;7.43;;;6.15;;
23716;SDS011;22094;52.130;5.598;2023-04-05T14:09:06;7.40;;;6.15;;
23716;SDS011;22094;52.130;5.598;2023-04-05T14:11:33;9.40;;;6.38;;
23716;SDS011;22094;52.130;5.598;2023-04-05T14:13:59;9.88;;;6.13;;
23716;SDS011;22094;52.130;5.598;2023-04-05T14:16:25;6.03;;;5.43;;
23716;SDS011;22094;52.130;5.598;2023-04-05T14:18:51;11.55;;;6.30;;
23716;SDS011;22094;52.130;5.598;2023-04-05T14:21:17;6.47;;;5.32;;
23716;SDS011;22094;52.130;5.598;2023-04-05T14:23:44;7.60;;;6.60;;
23716;SDS011;22094;52.130;5.598;2023-04-05T14:26:10;7.45;;;6.32;;
23716;SDS011;22094;52.130;5.598;2023-04-05T14:28:36;6.25;;;5.65;;
23716;SDS011;22094;52.130;5.598;2023-04-05T14:31:02;7.22;;;5.85;;
23716;SDS011;22094;52.130;5.598;2023-04-05T14:33:28;7.35;;;5.60;;
23716;SDS011;22094;52.130;5.598;2023-04-05T14:35:54;8.05;;;5.88;;
23716;SDS011;22094;52.130;5.598;2023-04-05T14:38:20;8.55;;;6.10;;
23716;SDS011;22094;52.130;5.598;2023-04-05T14:40:46;7.72;;;6.18;;
23716;SDS011;22094;52.130;5.598;2023-04-05T14:43:12;7.72;;;6.20;;
23716;SDS011;22094;52.130;5.598;2023-04-05T14:45:37;6.22;;;5.63;;
23716;SDS011;22094;52.130;5.598;2023-04-05T14:48:03;9.02;;;5.68;;
23716;SDS011;22094;52.130;5.598;2023-04-05T14:50:29;7.38;;;5.90;;
23716;SDS011;22094;52.130;5.598;2023-04-05T14:52:57;7.03;;;6.10;;
23716;SDS011;22094;52.130;5.598;2023-04-05T14:55:23;9.38;;;5.93;;
23716;SDS011;22094;52.130;5.598;2023-04-05T14:57:49;7.88;;;5.68;;
23716;SDS011;22094;52.130;5.598;2023-04-05T15:00:14;6.10;;;5.60;;
23716;SDS011;22094;52.130;5.598;2023-04-05T15:02:40;7.97;;;5.65;;
23716;SDS011;22094;52.130;5.598;2023-04-05T15:05:06;8.52;;;6.15;;
23716;SDS011;22094;52.130;5.598;2023-04-05T15:07:32;7.97;;;5.97;;
23716;SDS011;22094;52.130;5.598;2023-04-05T15:09:58;7.25;;;5.47;;
23716;SDS011;22094;52.130;5.598;2023-04-05T15:12:24;7.25;;;6.00;;
23716;SDS011;22094;52.130;5.598;2023-04-05T15:14:50;8.27;;;6.57;;
23716;SDS011;22094;52.130;5.598;2023-04-05T15:17:18;7.68;;;6.30;;